sensor_id;sensor_type;location;lat;lon;timestamp;P1;durP1;ratioP1;P2;durP2;ratioP2
47912;SDS011;33676;51.006;17.180;2024-01-07T00:01:57;9.00;;;7.70;;
47912;SDS011;33676;51.006;17.180;2024-01-07T00:04:26;12.20;;;8.30;;
47912;SDS011;33676;51.006;17.180;2024-01-07T00:06:55;10.20;;;7.40;;
47912;SDS011;33676;51.006;17.180;2024-01-07T00:09:23;8.80;;;7.10;;
47912;SDS011;33676;51.006;17.180;2024-01-07T00:11:52;12.20;;;8.50;;
47912;SDS011;33676;51.006;17.180;2024-01-07T00:14:20;11.30;;;8.60;;
47912;SDS011;33676;51.006;17.180;2024-01-07T00:16:49;10.50;;;7.20;;
47912;SDS011;33676;51.006;17.180;2024-01-07T00:19:17;11.30;;;8.40;;
47912;SDS011;33676;51.006;17.180;2024-01-07T00:21:46;9.10;;;7.60;;
47912;SDS011;33676;51.006;17.180;2024-01-07T00:24:15;9.70;;;8.50;;
47912;SDS011;33676;51.006;17.180;2024-01-07T00:26:44;9.80;;;7.00;;
47912;SDS011;33676;51.006;17.180;2024-01-07T00:29:12;9.80;;;7.50;;
47912;SDS011;33676;51.006;17.180;2024-01-07T00:31:41;8.50;;;7.10;;
47912;SDS011;33676;51.006;17.180;2024-01-07T00:34:10;10.00;;;8.00;;
47912;SDS011;33676;51.006;17.180;2024-01-07T00:36:38;9.70;;;7.00;;
47912;SDS011;33676;51.006;17.180;2024-01-07T00:39:07;13.40;;;8.30;;
47912;SDS011;33676;51.006;17.180;2024-01-07T00:41:35;12.10;;;9.80;;
47912;SDS011;33676;51.006;17.180;2024-01-07T00:44:04;12.00;;;8.90;;
47912;SDS011;33676;51.006;17.180;2024-01-07T00:46:32;12.90;;;9.40;;
47912;SDS011;33676;51.006;17.180;2024-01-07T00:49:01;13.00;;;9.10;;
47912;SDS011;33676;51.006;17.180;2024-01-07T00:51:29;12.30;;;7.80;;
47912;SDS011;33676;51.006;17.180;2024-01-07T00:53:58;10.00;;;8.20;;
47912;SDS011;33676;51.006;17.180;2024-01-07T00:56:27;12.90;;;8.70;;
47912;SDS011;33676;51.006;17.180;2024-01-07T00:58:56;9.10;;;6.80;;
47912;SDS011;33676;51.006;17.180;2024-01-07T01:01:24;11.40;;;7.90;;
47912;SDS011;33676;51.006;17.180;2024-01-07T01:03:53;7.90;;;6.90;;
47912;SDS011;33676;51.006;17.180;2024-01-07T01:06:22;13.10;;;8.80;;
47912;SDS011;33676;51.006;17.180;2024-01-07T01:08:51;10.90;;;8.30;;
47912;SDS011;33676;51.006;17.180;2024-01-07T01:11:19;12.10;;;9.20;;
47912;SDS011;33676;51.006;17.180;2024-01-07T01:13:47;9.00;;;7.60;;
47912;SDS011;33676;51.006;17.180;2024-01-07T01:16:16;12.00;;;8.60;;
47912;SDS011;33676;51.006;17.180;2024-01-07T01:18:44;12.80;;;7.60;;
47912;SDS011;33676;51.006;17.180;2024-01-07T01:21:13;11.30;;;8.60;;
47912;SDS011;33676;51.006;17.180;2024-01-07T01:23:43;12.00;;;8.20;;
47912;SDS011;33676;51.006;17.180;2024-01-07T01:26:12;12.50;;;7.60;;
47912;SDS011;33676;51.006;17.180;2024-01-07T01:28:40;13.00;;;8.30;;
47912;SDS011;33676;51.006;17.180;2024-01-07T01:31:12;11.90;;;7.90;;
47912;SDS011;33676;51.006;17.180;2024-01-07T01:33:43;7.70;;;6.90;;
47912;SDS011;33676;51.006;17.180;2024-01-07T01:36:11;9.00;;;7.90;;
47912;SDS011;33676;51.006;17.180;2024-01-07T01:38:40;11.40;;;7.90;;
47912;SDS011;33676;51.006;17.180;2024-01-07T01:41:08;15.00;;;9.50;;
47912;SDS011;33676;51.006;17.180;2024-01-07T01:43:37;9.90;;;8.30;;
47912;SDS011;33676;51.006;17.180;2024-01-07T01:46:06;12.50;;;7.60;;
47912;SDS011;33676;51.006;17.180;2024-01-07T01:48:35;9.30;;;7.60;;
47912;SDS011;33676;51.006;17.180;2024-01-07T01:51:04;10.70;;;7.30;;
47912;SDS011;33676;51.006;17.180;2024-01-07T01:53:33;12.10;;;8.70;;
47912;SDS011;33676;51.006;17.180;2024-01-07T01:56:03;14.30;;;8.40;;
47912;SDS011;33676;51.006;17.180;2024-01-07T01:58:32;9.60;;;7.80;;
47912;SDS011;33676;51.006;17.180;2024-01-07T02:01:01;9.70;;;7.20;;
47912;SDS011;33676;51.006;17.180;2024-01-07T02:03:29;11.30;;;7.90;;
47912;SDS011;33676;51.006;17.180;2024-01-07T02:05:58;13.10;;;8.90;;
47912;SDS011;33676;51.006;17.180;2024-01-07T02:08:45;11.90;;;8.90;;
47912;SDS011;33676;51.006;17.180;2024-01-07T02:11:21;14.30;;;10.20;;
47912;SDS011;33676;51.006;17.180;2024-01-07T02:13:50;11.30;;;7.80;;
47912;SDS011;33676;51.006;17.180;2024-01-07T02:16:19;9.40;;;7.90;;
47912;SDS011;33676;51.006;17.180;2024-01-07T02:18:47;13.90;;;10.50;;
47912;SDS011;33676;51.006;17.180;2024-01-07T02:21:16;13.80;;;10.00;;
47912;SDS011;33676;51.006;17.180;2024-01-07T02:23:45;12.60;;;9.90;;
47912;SDS011;33676;51.006;17.180;2024-01-07T02:26:13;10.20;;;8.10;;
47912;SDS011;33676;51.006;17.180;2024-01-07T02:28:42;9.70;;;8.20;;
47912;SDS011;33676;51.006;17.180;2024-01-07T02:31:10;12.90;;;7.80;;
47912;SDS011;33676;51.006;17.180;2024-01-07T02:33:39;12.70;;;8.20;;
47912;SDS011;33676;51.006;17.180;2024-01-07T02:36:08;12.00;;;9.30;;
47912;SDS011;33676;51.006;17.180;2024-01-07T02:38:36;11.30;;;9.90;;
47912;SDS011;33676;51.006;17.180;2024-01-07T02:41:05;11.70;;;9.50;;
47912;SDS011;33676;51.006;17.180;2024-01-07T02:43:33;13.50;;;8.50;;
47912;SDS011;33676;51.006;17.180;2024-01-07T02:46:02;10.30;;;9.20;;
47912;SDS011;33676;51.006;17.180;2024-01-07T02:48:30;13.10;;;9.80;;
47912;SDS011;33676;51.006;17.180;2024-01-07T02:51:00;13.10;;;8.60;;
47912;SDS011;33676;51.006;17.180;2024-01-07T02:53:29;11.00;;;9.10;;
47912;SDS011;33676;51.006;17.180;2024-01-07T02:55:57;12.00;;;8.20;;
47912;SDS011;33676;51.006;17.180;2024-01-07T02:58:26;13.80;;;9.60;;
47912;SDS011;33676;51.006;17.180;2024-01-07T03:00:54;13.80;;;9.70;;
47912;SDS011;33676;51.006;17.180;2024-01-07T03:03:23;10.90;;;8.40;;
47912;SDS011;33676;51.006;17.180;2024-01-07T03:05:51;14.00;;;9.30;;
47912;SDS011;33676;51.006;17.180;2024-01-07T03:08:20;12.20;;;9.10;;
47912;SDS011;33676;51.006;17.180;2024-01-07T03:10:48;12.90;;;8.80;;
47912;SDS011;33676;51.006;17.180;2024-01-07T03:13:17;13.60;;;8.50;;
47912;SDS011;33676;51.006;17.180;2024-01-07T03:15:45;8.90;;;6.70;;
47912;SDS011;33676;51.006;17.180;2024-01-07T03:18:14;13.20;;;10.10;;
47912;SDS011;33676;51.006;17.180;2024-01-07T03:20:43;14.30;;;8.90;;
47912;SDS011;33676;51.006;17.180;2024-01-07T03:23:11;11.40;;;8.40;;
47912;SDS011;33676;51.006;17.180;2024-01-07T03:25:39;15.40;;;9.80;;
47912;SDS011;33676;51.006;17.180;2024-01-07T03:28:08;11.90;;;8.40;;
47912;SDS011;33676;51.006;17.180;2024-01-07T03:30:36;10.70;;;9.00;;
47912;SDS011;33676;51.006;17.180;2024-01-07T03:33:05;14.00;;;9.00;;
47912;SDS011;33676;51.006;17.180;2024-01-07T03:35:34;10.30;;;8.80;;
47912;SDS011;33676;51.006;17.180;2024-01-07T03:38:03;16.50;;;10.50;;
47912;SDS011;33676;51.006;17.180;2024-01-07T03:40:32;13.10;;;9.60;;
47912;SDS011;33676;51.006;17.180;2024-01-07T03:43:00;10.90;;;8.50;;
47912;SDS011;33676;51.006;17.180;2024-01-07T03:45:28;13.50;;;9.50;;
47912;SDS011;33676;51.006;17.180;2024-01-07T03:47:58;11.90;;;8.80;;
47912;SDS011;33676;51.006;17.180;2024-01-07T03:50:27;12.80;;;8.60;;
47912;SDS011;33676;51.006;17.180;2024-01-07T03:52:55;13.20;;;9.80;;
47912;SDS011;33676;51.006;17.180;2024-01-07T03:55:24;13.70;;;9.40;;
47912;SDS011;33676;51.006;17.180;2024-01-07T03:57:52;12.40;;;8.50;;
47912;SDS011;33676;51.006;17.180;2024-01-07T04:00:21;10.80;;;7.60;;
47912;SDS011;33676;51.006;17.180;2024-01-07T04:02:50;12.00;;;8.60;;
47912;SDS011;33676;51.006;17.180;2024-01-07T04:05:18;12.10;;;8.50;;
47912;SDS011;33676;51.006;17.180;2024-01-07T04:07:47;13.50;;;9.50;;
47912;SDS011;33676;51.006;17.180;2024-01-07T04:10:16;9.30;;;8.30;;
47912;SDS011;33676;51.006;17.180;2024-01-07T04:12:45;14.20;;;9.40;;
47912;SDS011;33676;51.006;17.180;2024-01-07T04:15:13;14.50;;;9.00;;
47912;SDS011;33676;51.006;17.180;2024-01-07T04:17:42;11.10;;;8.70;;
47912;SDS011;33676;51.006;17.180;2024-01-07T04:20:13;11.40;;;8.40;;
47912;SDS011;33676;51.006;17.180;2024-01-07T04:22:42;12.80;;;9.10;;
47912;SDS011;33676;51.006;17.180;2024-01-07T04:25:10;10.90;;;8.80;;
47912;SDS011;33676;51.006;17.180;2024-01-07T04:27:39;12.80;;;9.00;;
47912;SDS011;33676;51.006;17.180;2024-01-07T04:30:08;13.00;;;9.00;;
47912;SDS011;33676;51.006;17.180;2024-01-07T04:32:37;11.10;;;8.20;;
47912;SDS011;33676;51.006;17.180;2024-01-07T04:35:06;11.00;;;7.80;;
47912;SDS011;33676;51.006;17.180;2024-01-07T04:37:35;13.10;;;9.10;;
47912;SDS011;33676;51.006;17.180;2024-01-07T04:40:11;10.80;;;7.40;;
47912;SDS011;33676;51.006;17.180;2024-01-07T04:42:40;13.50;;;8.40;;
47912;SDS011;33676;51.006;17.180;2024-01-07T04:45:09;14.40;;;10.00;;
47912;SDS011;33676;51.006;17.180;2024-01-07T04:47:37;11.00;;;8.90;;
47912;SDS011;33676;51.006;17.180;2024-01-07T04:50:06;10.00;;;7.60;;
47912;SDS011;33676;51.006;17.180;2024-01-07T04:52:35;10.60;;;8.10;;
47912;SDS011;33676;51.006;17.180;2024-01-07T04:55:04;9.10;;;8.00;;
47912;SDS011;33676;51.006;17.180;2024-01-07T04:57:32;11.10;;;7.40;;
47912;SDS011;33676;51.006;17.180;2024-01-07T05:00:02;12.30;;;8.50;;
47912;SDS011;33676;51.006;17.180;2024-01-07T05:02:32;12.30;;;8.70;;
47912;SDS011;33676;51.006;17.180;2024-01-07T05:05:00;8.60;;;7.70;;
47912;SDS011;33676;51.006;17.180;2024-01-07T05:07:29;8.20;;;6.40;;
47912;SDS011;33676;51.006;17.180;2024-01-07T05:09:57;8.30;;;7.20;;
47912;SDS011;33676;51.006;17.180;2024-01-07T05:12:26;8.50;;;7.20;;
47912;SDS011;33676;51.006;17.180;2024-01-07T05:14:54;9.50;;;8.20;;
47912;SDS011;33676;51.006;17.180;2024-01-07T05:17:23;10.70;;;7.90;;
47912;SDS011;33676;51.006;17.180;2024-01-07T05:19:51;10.50;;;8.10;;
47912;SDS011;33676;51.006;17.180;2024-01-07T05:22:21;11.70;;;8.30;;
47912;SDS011;33676;51.006;17.180;2024-01-07T05:24:50;11.80;;;8.40;;
47912;SDS011;33676;51.006;17.180;2024-01-07T05:27:18;10.80;;;7.70;;
47912;SDS011;33676;51.006;17.180;2024-01-07T05:29:47;9.60;;;7.50;;
47912;SDS011;33676;51.006;17.180;2024-01-07T05:32:15;10.20;;;8.20;;
47912;SDS011;33676;51.006;17.180;2024-01-07T05:34:44;10.90;;;7.70;;
47912;SDS011;33676;51.006;17.180;2024-01-07T05:37:13;9.50;;;7.90;;
47912;SDS011;33676;51.006;17.180;2024-01-07T05:39:41;12.60;;;7.10;;
47912;SDS011;33676;51.006;17.180;2024-01-07T05:42:10;8.00;;;6.40;;
47912;SDS011;33676;51.006;17.180;2024-01-07T05:44:38;9.40;;;8.00;;
47912;SDS011;33676;51.006;17.180;2024-01-07T05:47:08;9.00;;;7.80;;
47912;SDS011;33676;51.006;17.180;2024-01-07T05:49:37;11.00;;;8.20;;
47912;SDS011;33676;51.006;17.180;2024-01-07T05:52:05;9.90;;;7.90;;
47912;SDS011;33676;51.006;17.180;2024-01-07T05:54:34;10.40;;;7.30;;
47912;SDS011;33676;51.006;17.180;2024-01-07T05:57:03;8.80;;;7.60;;
47912;SDS011;33676;51.006;17.180;2024-01-07T05:59:31;8.40;;;7.60;;
47912;SDS011;33676;51.006;17.180;2024-01-07T06:02:00;9.20;;;6.80;;
47912;SDS011;33676;51.006;17.180;2024-01-07T06:04:29;8.40;;;7.50;;
47912;SDS011;33676;51.006;17.180;2024-01-07T06:06:58;9.50;;;6.70;;
47912;SDS011;33676;51.006;17.180;2024-01-07T06:09:27;9.70;;;6.80;;
47912;SDS011;33676;51.006;17.180;2024-01-07T06:11:56;8.60;;;6.10;;
47912;SDS011;33676;51.006;17.180;2024-01-07T06:14:24;9.60;;;6.50;;
47912;SDS011;33676;51.006;17.180;2024-01-07T06:16:53;9.90;;;6.40;;
47912;SDS011;33676;51.006;17.180;2024-01-07T06:19:21;8.20;;;6.00;;
47912;SDS011;33676;51.006;17.180;2024-01-07T06:21:50;8.30;;;6.90;;
47912;SDS011;33676;51.006;17.180;2024-01-07T06:24:19;7.00;;;5.30;;
47912;SDS011;33676;51.006;17.180;2024-01-07T06:26:47;9.00;;;5.70;;
47912;SDS011;33676;51.006;17.180;2024-01-07T06:29:16;7.20;;;6.50;;
47912;SDS011;33676;51.006;17.180;2024-01-07T06:31:45;6.50;;;5.80;;
47912;SDS011;33676;51.006;17.180;2024-01-07T06:34:14;9.00;;;6.40;;
47912;SDS011;33676;51.006;17.180;2024-01-07T06:36:43;7.60;;;6.90;;
47912;SDS011;33676;51.006;17.180;2024-01-07T06:39:12;8.80;;;6.20;;
47912;SDS011;33676;51.006;17.180;2024-01-07T06:41:41;6.70;;;6.00;;
47912;SDS011;33676;51.006;17.180;2024-01-07T06:44:09;10.10;;;6.20;;
47912;SDS011;33676;51.006;17.180;2024-01-07T06:46:37;6.60;;;6.00;;
47912;SDS011;33676;51.006;17.180;2024-01-07T06:49:06;6.00;;;5.10;;
47912;SDS011;33676;51.006;17.180;2024-01-07T06:51:37;7.00;;;5.90;;
47912;SDS011;33676;51.006;17.180;2024-01-07T06:54:06;7.30;;;5.40;;
47912;SDS011;33676;51.006;17.180;2024-01-07T06:56:38;7.00;;;5.90;;
47912;SDS011;33676;51.006;17.180;2024-01-07T06:59:06;5.30;;;4.70;;
47912;SDS011;33676;51.006;17.180;2024-01-07T07:01:35;5.50;;;4.90;;
47912;SDS011;33676;51.006;17.180;2024-01-07T07:04:04;7.20;;;5.90;;
47912;SDS011;33676;51.006;17.180;2024-01-07T07:06:33;6.20;;;5.00;;
47912;SDS011;33676;51.006;17.180;2024-01-07T07:09:02;5.20;;;4.70;;
47912;SDS011;33676;51.006;17.180;2024-01-07T07:11:32;8.20;;;6.20;;
47912;SDS011;33676;51.006;17.180;2024-01-07T07:14:00;7.20;;;5.20;;
47912;SDS011;33676;51.006;17.180;2024-01-07T07:16:29;6.70;;;5.00;;
47912;SDS011;33676;51.006;17.180;2024-01-07T07:18:57;6.60;;;5.50;;
47912;SDS011;33676;51.006;17.180;2024-01-07T07:21:26;7.50;;;5.20;;
47912;SDS011;33676;51.006;17.180;2024-01-07T07:23:55;15.10;;;8.90;;
47912;SDS011;33676;51.006;17.180;2024-01-07T07:26:24;19.50;;;10.20;;
47912;SDS011;33676;51.006;17.180;2024-01-07T07:28:52;22.60;;;10.40;;
47912;SDS011;33676;51.006;17.180;2024-01-07T07:31:21;12.80;;;9.50;;
47912;SDS011;33676;51.006;17.180;2024-01-07T07:34:08;7.10;;;6.20;;
47912;SDS011;33676;51.006;17.180;2024-01-07T07:36:40;7.80;;;5.20;;
47912;SDS011;33676;51.006;17.180;2024-01-07T07:39:14;5.60;;;4.30;;
47912;SDS011;33676;51.006;17.180;2024-01-07T07:41:42;7.10;;;5.70;;
47912;SDS011;33676;51.006;17.180;2024-01-07T07:44:11;7.30;;;4.80;;
47912;SDS011;33676;51.006;17.180;2024-01-07T07:46:39;10.70;;;7.00;;
47912;SDS011;33676;51.006;17.180;2024-01-07T07:49:08;9.10;;;5.30;;
47912;SDS011;33676;51.006;17.180;2024-01-07T07:51:36;8.10;;;7.20;;
47912;SDS011;33676;51.006;17.180;2024-01-07T07:54:05;11.20;;;8.00;;
47912;SDS011;33676;51.006;17.180;2024-01-07T07:56:33;8.50;;;6.10;;
47912;SDS011;33676;51.006;17.180;2024-01-07T07:59:04;7.60;;;5.40;;
47912;SDS011;33676;51.006;17.180;2024-01-07T08:01:32;6.30;;;5.10;;
47912;SDS011;33676;51.006;17.180;2024-01-07T08:04:00;5.10;;;4.40;;
47912;SDS011;33676;51.006;17.180;2024-01-07T08:06:31;7.30;;;6.40;;
47912;SDS011;33676;51.006;17.180;2024-01-07T08:08:59;9.60;;;7.50;;
47912;SDS011;33676;51.006;17.180;2024-01-07T08:11:28;8.00;;;6.90;;
47912;SDS011;33676;51.006;17.180;2024-01-07T08:13:58;7.70;;;6.60;;
47912;SDS011;33676;51.006;17.180;2024-01-07T08:16:26;6.70;;;6.00;;
47912;SDS011;33676;51.006;17.180;2024-01-07T08:18:55;6.40;;;4.10;;
47912;SDS011;33676;51.006;17.180;2024-01-07T08:21:25;6.40;;;5.20;;
47912;SDS011;33676;51.006;17.180;2024-01-07T08:23:53;5.80;;;4.40;;
47912;SDS011;33676;51.006;17.180;2024-01-07T08:26:22;6.40;;;5.40;;
47912;SDS011;33676;51.006;17.180;2024-01-07T08:28:51;9.60;;;6.60;;
47912;SDS011;33676;51.006;17.180;2024-01-07T08:31:20;8.00;;;6.10;;
47912;SDS011;33676;51.006;17.180;2024-01-07T08:33:49;6.40;;;5.70;;
47912;SDS011;33676;51.006;17.180;2024-01-07T08:36:17;6.70;;;5.20;;
47912;SDS011;33676;51.006;17.180;2024-01-07T08:38:46;5.40;;;4.50;;
47912;SDS011;33676;51.006;17.180;2024-01-07T08:41:16;4.20;;;3.80;;
47912;SDS011;33676;51.006;17.180;2024-01-07T08:43:44;6.50;;;4.70;;
47912;SDS011;33676;51.006;17.180;2024-01-07T08:46:14;3.90;;;3.50;;
47912;SDS011;33676;51.006;17.180;2024-01-07T08:48:43;5.20;;;4.30;;
47912;SDS011;33676;51.006;17.180;2024-01-07T08:51:12;4.20;;;3.60;;
47912;SDS011;33676;51.006;17.180;2024-01-07T08:53:40;5.00;;;4.50;;
47912;SDS011;33676;51.006;17.180;2024-01-07T08:56:09;4.60;;;4.10;;
47912;SDS011;33676;51.006;17.180;2024-01-07T08:58:37;6.50;;;4.50;;
47912;SDS011;33676;51.006;17.180;2024-01-07T09:01:06;4.70;;;4.30;;
47912;SDS011;33676;51.006;17.180;2024-01-07T09:03:34;3.60;;;3.30;;
47912;SDS011;33676;51.006;17.180;2024-01-07T09:06:04;4.70;;;4.00;;
47912;SDS011;33676;51.006;17.180;2024-01-07T09:08:32;6.70;;;4.60;;
47912;SDS011;33676;51.006;17.180;2024-01-07T09:11:03;4.70;;;4.00;;
47912;SDS011;33676;51.006;17.180;2024-01-07T09:13:32;4.80;;;4.00;;
47912;SDS011;33676;51.006;17.180;2024-01-07T09:16:00;5.40;;;4.30;;
47912;SDS011;33676;51.006;17.180;2024-01-07T09:18:29;6.60;;;4.40;;
47912;SDS011;33676;51.006;17.180;2024-01-07T09:20:59;5.10;;;4.20;;
47912;SDS011;33676;51.006;17.180;2024-01-07T09:23:27;3.20;;;2.90;;
47912;SDS011;33676;51.006;17.180;2024-01-07T09:25:55;3.70;;;3.40;;
47912;SDS011;33676;51.006;17.180;2024-01-07T09:28:24;4.70;;;3.40;;
47912;SDS011;33676;51.006;17.180;2024-01-07T09:30:53;5.40;;;4.50;;
47912;SDS011;33676;51.006;17.180;2024-01-07T09:33:21;6.70;;;4.30;;
47912;SDS011;33676;51.006;17.180;2024-01-07T09:35:51;4.20;;;3.50;;
47912;SDS011;33676;51.006;17.180;2024-01-07T09:38:29;7.20;;;4.20;;
47912;SDS011;33676;51.006;17.180;2024-01-07T09:40:58;6.40;;;5.10;;
47912;SDS011;33676;51.006;17.180;2024-01-07T09:43:27;6.20;;;4.60;;
47912;SDS011;33676;51.006;17.180;2024-01-07T09:45:59;3.70;;;3.40;;
47912;SDS011;33676;51.006;17.180;2024-01-07T09:48:27;6.00;;;4.50;;
47912;SDS011;33676;51.006;17.180;2024-01-07T09:50:57;5.40;;;4.30;;
47912;SDS011;33676;51.006;17.180;2024-01-07T09:53:30;5.60;;;3.80;;
47912;SDS011;33676;51.006;17.180;2024-01-07T09:59:05;5.30;;;4.80;;
47912;SDS011;33676;51.006;17.180;2024-01-07T10:01:34;5.10;;;4.20;;
47912;SDS011;33676;51.006;17.180;2024-01-07T10:04:06;7.90;;;4.70;;
47912;SDS011;33676;51.006;17.180;2024-01-07T10:06:35;5.00;;;4.20;;
47912;SDS011;33676;51.006;17.180;2024-01-07T10:09:06;7.00;;;4.80;;
47912;SDS011;33676;51.006;17.180;2024-01-07T10:11:35;7.30;;;5.70;;
47912;SDS011;33676;51.006;17.180;2024-01-07T10:14:04;8.60;;;5.60;;
47912;SDS011;33676;51.006;17.180;2024-01-07T10:16:33;5.50;;;4.60;;
47912;SDS011;33676;51.006;17.180;2024-01-07T10:19:01;5.90;;;5.20;;
47912;SDS011;33676;51.006;17.180;2024-01-07T10:21:30;4.10;;;3.70;;
47912;SDS011;33676;51.006;17.180;2024-01-07T10:24:10;6.10;;;5.20;;
47912;SDS011;33676;51.006;17.180;2024-01-07T10:26:40;6.40;;;5.20;;
47912;SDS011;33676;51.006;17.180;2024-01-07T10:29:09;5.70;;;5.20;;
47912;SDS011;33676;51.006;17.180;2024-01-07T10:31:38;9.60;;;5.40;;
47912;SDS011;33676;51.006;17.180;2024-01-07T10:34:10;6.80;;;4.20;;
47912;SDS011;33676;51.006;17.180;2024-01-07T10:36:42;5.70;;;4.30;;
47912;SDS011;33676;51.006;17.180;2024-01-07T10:39:13;8.30;;;6.00;;
47912;SDS011;33676;51.006;17.180;2024-01-07T10:41:44;23.40;;;14.80;;
47912;SDS011;33676;51.006;17.180;2024-01-07T10:44:14;10.70;;;7.10;;
47912;SDS011;33676;51.006;17.180;2024-01-07T10:46:46;18.10;;;11.20;;
47912;SDS011;33676;51.006;17.180;2024-01-07T10:49:19;9.40;;;6.20;;
47912;SDS011;33676;51.006;17.180;2024-01-07T10:52:05;10.00;;;7.20;;
47912;SDS011;33676;51.006;17.180;2024-01-07T10:54:40;6.10;;;4.90;;
47912;SDS011;33676;51.006;17.180;2024-01-07T10:57:24;8.20;;;6.10;;
47912;SDS011;33676;51.006;17.180;2024-01-07T11:05:59;7.40;;;5.80;;
47912;SDS011;33676;51.006;17.180;2024-01-07T11:08:39;7.20;;;5.70;;
47912;SDS011;33676;51.006;17.180;2024-01-07T11:11:21;9.20;;;5.40;;
47912;SDS011;33676;51.006;17.180;2024-01-07T11:14:39;7.00;;;6.00;;
47912;SDS011;33676;51.006;17.180;2024-01-07T11:17:11;7.80;;;6.30;;
47912;SDS011;33676;51.006;17.180;2024-01-07T11:19:51;7.90;;;6.30;;
47912;SDS011;33676;51.006;17.180;2024-01-07T11:22:32;8.50;;;7.60;;
47912;SDS011;33676;51.006;17.180;2024-01-07T11:25:32;7.40;;;6.60;;
47912;SDS011;33676;51.006;17.180;2024-01-07T11:32:06;6.50;;;5.80;;
47912;SDS011;33676;51.006;17.180;2024-01-07T11:34:42;8.40;;;6.90;;
47912;SDS011;33676;51.006;17.180;2024-01-07T11:37:12;8.60;;;7.80;;
47912;SDS011;33676;51.006;17.180;2024-01-07T11:39:43;8.40;;;6.90;;
47912;SDS011;33676;51.006;17.180;2024-01-07T11:42:20;11.50;;;6.70;;
47912;SDS011;33676;51.006;17.180;2024-01-07T11:44:55;7.40;;;6.70;;
47912;SDS011;33676;51.006;17.180;2024-01-07T11:47:24;7.80;;;7.00;;
47912;SDS011;33676;51.006;17.180;2024-01-07T11:49:58;10.50;;;7.90;;
47912;SDS011;33676;51.006;17.180;2024-01-07T11:52:33;9.40;;;7.40;;
47912;SDS011;33676;51.006;17.180;2024-01-07T11:55:23;8.90;;;7.40;;
47912;SDS011;33676;51.006;17.180;2024-01-07T11:57:56;9.60;;;6.90;;
47912;SDS011;33676;51.006;17.180;2024-01-07T12:00:59;8.90;;;6.40;;
47912;SDS011;33676;51.006;17.180;2024-01-07T12:04:20;7.20;;;6.50;;
47912;SDS011;33676;51.006;17.180;2024-01-07T12:06:56;10.30;;;6.80;;
47912;SDS011;33676;51.006;17.180;2024-01-07T12:09:31;8.40;;;6.30;;
47912;SDS011;33676;51.006;17.180;2024-01-07T12:12:05;8.40;;;6.50;;
47912;SDS011;33676;51.006;17.180;2024-01-07T12:15:08;7.70;;;5.80;;
47912;SDS011;33676;51.006;17.180;2024-01-07T12:17:54;6.40;;;5.70;;
47912;SDS011;33676;51.006;17.180;2024-01-07T12:20:40;7.70;;;6.60;;
47912;SDS011;33676;51.006;17.180;2024-01-07T12:24:04;8.80;;;8.00;;
47912;SDS011;33676;51.006;17.180;2024-01-07T12:26:56;7.80;;;6.30;;
47912;SDS011;33676;51.006;17.180;2024-01-07T12:29:40;12.50;;;8.40;;
47912;SDS011;33676;51.006;17.180;2024-01-07T12:32:09;11.60;;;8.20;;
47912;SDS011;33676;51.006;17.180;2024-01-07T12:34:59;9.00;;;7.70;;
47912;SDS011;33676;51.006;17.180;2024-01-07T12:37:30;9.00;;;6.90;;
47912;SDS011;33676;51.006;17.180;2024-01-07T12:39:58;10.70;;;8.30;;
47912;SDS011;33676;51.006;17.180;2024-01-07T12:42:27;8.10;;;7.10;;
47912;SDS011;33676;51.006;17.180;2024-01-07T12:44:56;11.90;;;7.70;;
47912;SDS011;33676;51.006;17.180;2024-01-07T12:47:25;7.40;;;6.60;;
47912;SDS011;33676;51.006;17.180;2024-01-07T12:49:55;8.30;;;7.30;;
47912;SDS011;33676;51.006;17.180;2024-01-07T12:52:24;12.90;;;8.10;;
47912;SDS011;33676;51.006;17.180;2024-01-07T12:54:53;8.70;;;7.90;;
47912;SDS011;33676;51.006;17.180;2024-01-07T12:57:24;10.50;;;7.60;;
47912;SDS011;33676;51.006;17.180;2024-01-07T12:59:58;8.00;;;6.50;;
47912;SDS011;33676;51.006;17.180;2024-01-07T13:02:48;9.60;;;6.60;;
47912;SDS011;33676;51.006;17.180;2024-01-07T13:05:19;9.30;;;7.40;;
47912;SDS011;33676;51.006;17.180;2024-01-07T13:07:50;11.30;;;8.30;;
47912;SDS011;33676;51.006;17.180;2024-01-07T13:10:21;10.10;;;9.00;;
47912;SDS011;33676;51.006;17.180;2024-01-07T13:12:51;15.80;;;11.40;;
47912;SDS011;33676;51.006;17.180;2024-01-07T13:15:32;13.20;;;8.90;;
47912;SDS011;33676;51.006;17.180;2024-01-07T13:18:03;18.30;;;10.20;;
47912;SDS011;33676;51.006;17.180;2024-01-07T13:20:35;11.60;;;8.50;;
47912;SDS011;33676;51.006;17.180;2024-01-07T13:23:05;10.30;;;8.00;;
47912;SDS011;33676;51.006;17.180;2024-01-07T13:25:34;20.50;;;14.20;;
47912;SDS011;33676;51.006;17.180;2024-01-07T13:28:03;24.20;;;14.60;;
47912;SDS011;33676;51.006;17.180;2024-01-07T13:30:32;30.10;;;17.80;;
47912;SDS011;33676;51.006;17.180;2024-01-07T13:33:03;19.80;;;12.90;;
47912;SDS011;33676;51.006;17.180;2024-01-07T13:35:35;12.40;;;9.50;;
47912;SDS011;33676;51.006;17.180;2024-01-07T13:38:03;21.10;;;13.60;;
47912;SDS011;33676;51.006;17.180;2024-01-07T13:40:32;20.30;;;12.20;;
47912;SDS011;33676;51.006;17.180;2024-01-07T13:43:00;16.10;;;10.70;;
47912;SDS011;33676;51.006;17.180;2024-01-07T13:45:29;14.50;;;9.40;;
47912;SDS011;33676;51.006;17.180;2024-01-07T13:47:58;14.30;;;9.30;;
47912;SDS011;33676;51.006;17.180;2024-01-07T13:50:28;18.60;;;11.70;;
47912;SDS011;33676;51.006;17.180;2024-01-07T13:52:57;16.10;;;10.70;;
47912;SDS011;33676;51.006;17.180;2024-01-07T13:55:26;12.00;;;8.60;;
47912;SDS011;33676;51.006;17.180;2024-01-07T13:57:55;17.00;;;10.40;;
47912;SDS011;33676;51.006;17.180;2024-01-07T14:00:24;13.20;;;9.50;;
47912;SDS011;33676;51.006;17.180;2024-01-07T14:02:53;12.80;;;9.10;;
47912;SDS011;33676;51.006;17.180;2024-01-07T14:05:23;11.80;;;9.10;;
47912;SDS011;33676;51.006;17.180;2024-01-07T14:07:52;14.00;;;9.20;;
47912;SDS011;33676;51.006;17.180;2024-01-07T14:10:22;13.30;;;10.70;;
47912;SDS011;33676;51.006;17.180;2024-01-07T14:12:53;12.80;;;8.90;;
47912;SDS011;33676;51.006;17.180;2024-01-07T14:15:23;15.00;;;9.80;;
47912;SDS011;33676;51.006;17.180;2024-01-07T14:17:54;19.60;;;12.40;;
47912;SDS011;33676;51.006;17.180;2024-01-07T14:20:25;19.70;;;14.00;;
47912;SDS011;33676;51.006;17.180;2024-01-07T14:22:57;21.50;;;13.90;;
47912;SDS011;33676;51.006;17.180;2024-01-07T14:25:28;24.40;;;14.80;;
47912;SDS011;33676;51.006;17.180;2024-01-07T14:27:59;17.80;;;12.30;;
47912;SDS011;33676;51.006;17.180;2024-01-07T14:30:27;20.80;;;12.80;;
47912;SDS011;33676;51.006;17.180;2024-01-07T14:32:57;15.40;;;11.10;;
47912;SDS011;33676;51.006;17.180;2024-01-07T14:35:27;20.10;;;15.10;;
47912;SDS011;33676;51.006;17.180;2024-01-07T14:37:59;13.30;;;11.30;;
47912;SDS011;33676;51.006;17.180;2024-01-07T14:40:32;17.60;;;13.00;;
47912;SDS011;33676;51.006;17.180;2024-01-07T14:43:03;21.60;;;15.40;;
47912;SDS011;33676;51.006;17.180;2024-01-07T14:45:34;17.80;;;12.10;;
47912;SDS011;33676;51.006;17.180;2024-01-07T14:48:06;18.30;;;14.20;;
47912;SDS011;33676;51.006;17.180;2024-01-07T14:50:39;18.20;;;13.80;;
47912;SDS011;33676;51.006;17.180;2024-01-07T14:53:10;14.30;;;10.90;;
47912;SDS011;33676;51.006;17.180;2024-01-07T14:55:40;14.70;;;10.70;;
47912;SDS011;33676;51.006;17.180;2024-01-07T14:58:09;19.60;;;13.40;;
47912;SDS011;33676;51.006;17.180;2024-01-07T15:00:38;20.40;;;13.20;;